Briefing drone pour Le pouzin

Rechercher une autre localisation

Conditions de vol :


Nous sommes le : Samedi 24 octobre 2020
Il est 00:09 UTC (02:09 LT)

Lever de soleil : 05:42 UTC (07:42 LT)
Coucher de soleil : 17:08 UTC (19:08 LT)

Météo

L'essentiel des conditions de vol

VIGILANCE MÉTÉO FRANCE - Ardèche (07)
Vigilance Jaune : Orages / Pluie-inondation / Inondation
CARTE TEMSI
CARTES DES FRONTS
METAR de LFLU
LFLU 231800Z AUTO 17003KT 9999 SCT047 BKN130 OVC180 13/13 Q1018

Date d'émission: 23/10/2020
Heure d'émission: 18:00 UTC
Vent: 170° pour 3 KT (6 km/h)
Visibilité horizontale: > 10 km
Plafond :
- Nuages épars à 4700ft (1433m)
- Nuages morcelés à 13000ft (3962m)
- Couvert à 18000ft (5486m)
Température: 13 °C
Point de rosée: 13 °C
Humidité: 100%
Pression (QNH): 1018 hPa
Prévision 24h pour Valence (15 km)
Vent : 168° pour 2 KT (7 km/h)
Temperature Maxi: 11 °C
Temperature Min: 11 °C
Humidité : 82%
Condition : Ciel dégagé



Warning: count(): Parameter must be an array or an object that implements Countable in /homepages/6/d509196549/htdocs/droneoxygene/briefing.php on line 743
WEBCAM POUR LE POUZIN

Réglementation

Voler en sécurité

CARTES AERONAUTIQUE 1/500.000
CARTES VAC (LFLU)
SUP AIP




Chargement des AIP...
NOTAM (LE POUZIN + Terrain à proximité / FIR )




Chargement des NOTAMS...
CONTACT PREFECTURE 07


Avertissement : Les données mises à disposition sont indicatives. Oxygène Drone ne pourra être tenu responsable de dégâts causés aux biens et aux personnes.